Time;durP1;ratioP1;P1;durP2;ratioP2;P2;SDS_P1;SDS_P2;PMS_P1;PMS_P2;Temp;Humidity;BMP_temperature;BMP_pressure;BME280_temperature;BME280_humidity;BME280_pressure;Samples;Min_cycle;Max_cycle;Signal;HPM_P1;HPM_P2
2021/09/19 00:00:31;;;;;;;5.90;4.40;;;;;;;;;;5031675;28;20413;-48
2021/09/19 00:02:57;;;;;;;4.50;4.10;;;;;;;;;;5031775;28;20895;-51
2021/09/19 00:05:23;;;;;;;4.20;3.90;;;;;;;;;;5031777;28;20415;-51
2021/09/19 00:07:50;;;;;;;4.30;4.00;;;;;;;;;;5031867;28;20461;-48
2021/09/19 00:10:17;;;;;;;4.23;3.83;;;;;;;;;;5031603;28;20400;-49
2021/09/19 00:12:44;;;;;;;3.70;3.50;;;;;;;;;;5031719;28;20409;-51
2021/09/19 00:15:11;;;;;;;4.30;4.00;;;;;;;;;;5031776;28;20400;-47
2021/09/19 00:17:37;;;;;;;3.90;3.60;;;;;;;;;;5031506;28;20443;-50
2021/09/19 00:20:04;;;;;;;3.90;3.43;;;;;;;;;;5031868;28;20571;-50
2021/09/19 00:22:30;;;;;;;3.90;3.60;;;;;;;;;;5031643;28;20405;-50
2021/09/19 00:24:56;;;;;;;3.63;3.27;;;;;;;;;;5031697;28;20881;-51
2021/09/19 00:27:22;;;;;;;3.33;3.13;;;;;;;;;;5031975;28;20428;-51
2021/09/19 00:29:48;;;;;;;3.90;3.60;;;;;;;;;;5031835;28;20404;-51
2021/09/19 00:32:13;;;;;;;4.47;4.07;;;;;;;;;;5031676;28;20464;-49
2021/09/19 00:34:39;;;;;;;3.90;3.60;;;;;;;;;;5031776;28;20392;-50
2021/09/19 00:37:05;;;;;;;4.40;4.00;;;;;;;;;;5031523;28;20965;-48
2021/09/19 00:39:31;;;;;;;3.70;3.50;;;;;;;;;;5031262;28;20902;-49
2021/09/19 00:41:57;;;;;;;3.80;3.50;;;;;;;;;;5031480;28;20445;-50
2021/09/19 00:44:25;;;;;;;3.73;3.53;;;;;;;;;;5031525;28;20577;-51
2021/09/19 00:46:51;;;;;;;4.03;3.50;;;;;;;;;;5031417;28;20466;-50
2021/09/19 00:49:17;;;;;;;3.53;3.33;;;;;;;;;;5031283;28;20439;-50
2021/09/19 00:51:43;;;;;;;3.77;3.57;;;;;;;;;;5031546;28;20461;-51
2021/09/19 00:54:10;;;;;;;4.50;4.00;;;;;;;;;;5031395;28;20453;-49
2021/09/19 00:56:37;;;;;;;4.10;3.80;;;;;;;;;;5031320;28;20866;-48
2021/09/19 00:59:03;;;;;;;4.90;4.50;;;;;;;;;;5030989;28;20412;-47
2021/09/19 01:01:29;;;;;;;4.67;4.30;;;;;;;;;;5030728;28;20406;-48
2021/09/19 01:03:55;;;;;;;4.67;4.27;;;;;;;;;;5030912;28;20405;-50
2021/09/19 01:06:21;;;;;;;5.03;4.63;;;;;;;;;;5030959;28;20425;-48
2021/09/19 01:08:48;;;;;;;5.10;4.70;;;;;;;;;;5029915;28;20487;-49
2021/09/19 01:11:15;;;;;;;4.60;4.27;;;;;;;;;;5031084;28;20835;-50
2021/09/19 01:13:42;;;;;;;10.47;5.37;;;;;;;;;;5031168;28;20399;-51
2021/09/19 01:16:09;;;;;;;4.80;4.40;;;;;;;;;;5030962;28;20508;-48
2021/09/19 01:18:35;;;;;;;4.47;4.07;;;;;;;;;;5031207;28;20411;-51
2021/09/19 01:21:01;;;;;;;4.13;3.80;;;;;;;;;;5030898;28;20421;-49
2021/09/19 01:23:31;;;;;;;5.00;4.60;;;;;;;;;;5031706;28;20883;-50
2021/09/19 01:25:57;;;;;;;3.90;3.60;;;;;;;;;;5034634;28;20483;-49
2021/09/19 01:28:23;;;;;;;4.53;4.17;;;;;;;;;;5034706;28;20485;-50
2021/09/19 01:30:49;;;;;;;4.57;4.27;;;;;;;;;;5034578;28;20872;-51
2021/09/19 01:33:15;;;;;;;4.80;4.47;;;;;;;;;;5034470;28;20963;-49
2021/09/19 01:35:41;;;;;;;4.60;4.10;;;;;;;;;;5034408;28;20534;-50
2021/09/19 01:38:07;;;;;;;4.40;4.10;;;;;;;;;;5034516;28;20402;-49
2021/09/19 01:40:33;;;;;;;5.03;4.63;;;;;;;;;;5034180;28;20442;-47
2021/09/19 01:42:59;;;;;;;11.60;4.57;;;;;;;;;;5034299;28;20413;-49
2021/09/19 01:45:27;;;;;;;4.60;4.13;;;;;;;;;;5034251;28;20400;-50
2021/09/19 01:47:53;;;;;;;5.00;4.60;;;;;;;;;;5034383;28;20413;-51
2021/09/19 01:50:23;;;;;;;6.43;4.60;;;;;;;;;;5034003;28;20409;-51
2021/09/19 01:52:49;;;;;;;5.13;4.73;;;;;;;;;;5034100;28;20399;-50
2021/09/19 01:55:16;;;;;;;4.93;4.30;;;;;;;;;;5034000;28;20410;-50
2021/09/19 01:57:42;;;;;;;6.93;4.53;;;;;;;;;;5034082;28;20792;-50
2021/09/19 02:00:08;;;;;;;4.67;4.27;;;;;;;;;;5033935;28;20406;-51
2021/09/19 02:02:35;;;;;;;5.57;4.50;;;;;;;;;;5034098;28;20786;-50
2021/09/19 02:05:01;;;;;;;5.03;4.53;;;;;;;;;;5034022;28;20489;-49
2021/09/19 02:07:27;;;;;;;4.40;4.00;;;;;;;;;;5033870;28;20560;-49
2021/09/19 02:09:53;;;;;;;5.10;4.60;;;;;;;;;;5033651;28;20713;-51
2021/09/19 02:12:19;;;;;;;4.83;4.43;;;;;;;;;;5033627;28;20459;-50
2021/09/19 02:14:45;;;;;;;5.07;4.60;;;;;;;;;;5033745;28;20550;-50
2021/09/19 02:17:11;;;;;;;5.30;4.80;;;;;;;;;;5033567;28;20461;-50
2021/09/19 02:19:37;;;;;;;5.20;4.80;;;;;;;;;;5033508;28;20407;-50
2021/09/19 02:22:03;;;;;;;4.67;4.37;;;;;;;;;;5033634;28;20411;-50
2021/09/19 02:24:29;;;;;;;5.03;4.60;;;;;;;;;;5033578;28;20779;-51
2021/09/19 02:26:55;;;;;;;4.70;4.30;;;;;;;;;;5033486;28;20418;-51
2021/09/19 02:29:21;;;;;;;4.90;4.47;;;;;;;;;;5033294;28;20408;-49
2021/09/19 02:31:47;;;;;;;4.63;4.33;;;;;;;;;;5033351;28;20466;-49
2021/09/19 02:34:13;;;;;;;5.10;4.60;;;;;;;;;;5033264;28;20403;-49
2021/09/19 02:36:40;;;;;;;6.00;4.40;;;;;;;;;;5032308;28;20480;-47
2021/09/19 02:39:07;;;;;;;4.47;4.13;;;;;;;;;;5033104;28;20464;-49
2021/09/19 02:41:33;;;;;;;5.10;4.70;;;;;;;;;;5033233;28;20465;-48
2021/09/19 02:43:59;;;;;;;5.00;4.37;;;;;;;;;;5033202;28;20403;-49
2021/09/19 02:46:25;;;;;;;5.10;4.70;;;;;;;;;;5033189;28;20926;-50
2021/09/19 02:48:51;;;;;;;6.13;5.57;;;;;;;;;;5033149;28;20489;-50
2021/09/19 02:51:17;;;;;;;5.53;5.03;;;;;;;;;;5032776;28;20501;-50
2021/09/19 02:53:43;;;;;;;5.67;5.13;;;;;;;;;;5032966;28;20914;-51
2021/09/19 02:56:09;;;;;;;5.03;4.53;;;;;;;;;;5033067;28;20770;-50
2021/09/19 02:58:37;;;;;;;5.17;4.77;;;;;;;;;;5032949;28;20398;-49
2021/09/19 03:01:03;;;;;;;5.33;4.93;;;;;;;;;;5032718;28;20399;-49
2021/09/19 03:03:29;;;;;;;4.90;4.47;;;;;;;;;;5032804;28;20407;-49
2021/09/19 03:05:55;;;;;;;5.60;5.10;;;;;;;;;;5032780;28;20481;-49
2021/09/19 03:08:21;;;;;;;5.63;5.10;;;;;;;;;;5032680;28;20399;-49
2021/09/19 03:10:47;;;;;;;6.27;5.47;;;;;;;;;;5032415;28;20555;-50
2021/09/19 03:13:13;;;;;;;4.93;4.53;;;;;;;;;;5032592;28;20430;-50
2021/09/19 03:15:39;;;;;;;5.43;4.70;;;;;;;;;;5032444;28;20469;-50
2021/09/19 03:18:05;;;;;;;4.97;4.63;;;;;;;;;;5032615;28;20403;-51
2021/09/19 03:20:31;;;;;;;5.20;4.80;;;;;;;;;;5032379;28;20541;-51
2021/09/19 03:22:57;;;;;;;5.07;4.67;;;;;;;;;;5032323;28;20406;-49
2021/09/19 03:25:23;;;;;;;5.83;5.30;;;;;;;;;;5032338;28;20916;-49
2021/09/19 03:27:49;;;;;;;5.40;4.60;;;;;;;;;;5032428;28;20411;-50
2021/09/19 03:30:16;;;;;;;4.63;4.33;;;;;;;;;;5032090;28;20759;-50
2021/09/19 03:32:42;;;;;;;6.00;5.40;;;;;;;;;;5032309;28;20403;-49
2021/09/19 03:35:09;;;;;;;5.60;4.93;;;;;;;;;;5032838;28;20493;-49
2021/09/19 03:37:35;;;;;;;5.60;5.10;;;;;;;;;;5032166;28;20423;-48
2021/09/19 03:40:01;;;;;;;7.60;5.27;;;;;;;;;;5031986;28;20478;-48
2021/09/19 03:42:27;;;;;;;6.47;5.40;;;;;;;;;;5032134;28;20406;-48
2021/09/19 03:44:53;;;;;;;5.53;5.03;;;;;;;;;;5032176;28;20901;-48
2021/09/19 03:47:19;;;;;;;5.47;4.93;;;;;;;;;;5031680;28;20501;-49
2021/09/19 03:49:45;;;;;;;6.00;5.50;;;;;;;;;;5031855;28;20412;-50
2021/09/19 03:52:11;;;;;;;5.47;5.07;;;;;;;;;;5031841;28;20454;-50
2021/09/19 03:54:37;;;;;;;6.10;5.60;;;;;;;;;;5031955;28;20429;-50
2021/09/19 03:57:03;;;;;;;5.20;4.80;;;;;;;;;;5031968;28;20444;-51
2021/09/19 03:59:29;;;;;;;4.90;4.60;;;;;;;;;;5031866;28;20820;-51
2021/09/19 04:01:55;;;;;;;6.17;5.00;;;;;;;;;;5031862;28;20821;-49
2021/09/19 04:04:21;;;;;;;6.10;4.57;;;;;;;;;;5031813;28;20406;-49
2021/09/19 04:06:47;;;;;;;6.67;5.37;;;;;;;;;;5031800;28;20437;-49
2021/09/19 04:09:13;;;;;;;6.30;5.60;;;;;;;;;;5031582;28;20498;-50
2021/09/19 04:11:39;;;;;;;5.40;4.97;;;;;;;;;;5031677;28;20962;-48
2021/09/19 04:14:05;;;;;;;6.07;5.50;;;;;;;;;;5032136;28;20400;-48
2021/09/19 04:16:31;;;;;;;6.63;6.07;;;;;;;;;;5031507;28;20446;-50
2021/09/19 04:18:57;;;;;;;13.80;6.10;;;;;;;;;;5031950;28;20524;-50
2021/09/19 04:21:23;;;;;;;6.57;5.87;;;;;;;;;;5031385;28;20403;-51
2021/09/19 04:23:49;;;;;;;5.97;5.47;;;;;;;;;;5031661;28;20402;-50
2021/09/19 04:26:15;;;;;;;8.00;6.10;;;;;;;;;;5031621;28;20428;-50
2021/09/19 04:28:41;;;;;;;6.50;5.97;;;;;;;;;;5032163;28;20423;-50
2021/09/19 04:31:07;;;;;;;7.20;6.50;;;;;;;;;;5031415;28;20957;-50
2021/09/19 04:33:33;;;;;;;7.47;6.30;;;;;;;;;;5031542;28;20894;-48
2021/09/19 04:35:59;;;;;;;9.60;7.00;;;;;;;;;;5032165;28;20414;-48
2021/09/19 04:38:24;;;;;;;8.00;7.20;;;;;;;;;;5031721;28;20399;-48
2021/09/19 04:40:50;;;;;;;6.93;6.30;;;;;;;;;;5031201;28;20403;-51
2021/09/19 04:43:16;;;;;;;8.23;6.90;;;;;;;;;;5031554;28;20409;-51
2021/09/19 04:45:42;;;;;;;7.30;6.30;;;;;;;;;;5031402;28;20412;-50
2021/09/19 04:48:08;;;;;;;10.03;6.90;;;;;;;;;;5031404;28;20899;-49
2021/09/19 04:50:34;;;;;;;9.60;6.93;;;;;;;;;;5031064;28;20451;-49
2021/09/19 04:53:00;;;;;;;6.83;6.13;;;;;;;;;;5031311;28;20417;-49
2021/09/19 04:55:26;;;;;;;7.47;6.77;;;;;;;;;;5031310;28;20403;-50
2021/09/19 04:57:52;;;;;;;8.00;6.50;;;;;;;;;;5031383;28;20406;-49
2021/09/19 05:00:18;;;;;;;7.40;6.60;;;;;;;;;;5034689;28;20398;-49
2021/09/19 05:02:44;;;;;;;7.17;6.57;;;;;;;;;;5035234;28;20793;-50
2021/09/19 05:05:10;;;;;;;7.10;6.40;;;;;;;;;;5035052;28;20532;-48
2021/09/19 05:07:36;;;;;;;6.90;6.30;;;;;;;;;;5034943;28;20483;-48
2021/09/19 05:10:03;;;;;;;9.13;6.80;;;;;;;;;;5034879;28;20474;-50
2021/09/19 05:12:29;;;;;;;7.00;6.30;;;;;;;;;;5034834;28;20498;-50
2021/09/19 05:14:55;;;;;;;6.57;5.97;;;;;;;;;;5034932;28;20762;-48
2021/09/19 05:17:21;;;;;;;7.50;6.20;;;;;;;;;;5034660;28;21004;-49
2021/09/19 05:19:47;;;;;;;8.23;7.37;;;;;;;;;;5034601;28;20493;-49
2021/09/19 05:22:13;;;;;;;7.40;6.47;;;;;;;;;;5034732;28;20403;-50
2021/09/19 05:24:39;;;;;;;9.23;6.90;;;;;;;;;;5034768;28;20406;-50
2021/09/19 05:27:05;;;;;;;7.27;6.07;;;;;;;;;;5034633;28;20433;-49
2021/09/19 05:29:31;;;;;;;7.90;6.90;;;;;;;;;;5034416;28;20771;-49
2021/09/19 05:31:57;;;;;;;7.00;6.20;;;;;;;;;;5034478;28;20477;-48
2021/09/19 05:34:23;;;;;;;10.70;6.80;;;;;;;;;;5034600;28;20402;-50
2021/09/19 05:36:49;;;;;;;8.23;6.63;;;;;;;;;;5034369;28;20430;-49
2021/09/19 05:39:15;;;;;;;11.43;6.53;;;;;;;;;;5034400;28;20407;-49
2021/09/19 05:41:41;;;;;;;8.00;7.20;;;;;;;;;;5032875;28;20505;-49
2021/09/19 05:44:07;;;;;;;7.97;7.17;;;;;;;;;;5034429;28;20422;-48
2021/09/19 05:46:33;;;;;;;10.73;7.07;;;;;;;;;;5034146;28;20437;-49
2021/09/19 05:48:59;;;;;;;6.93;6.23;;;;;;;;;;5034312;28;20406;-50
2021/09/19 05:51:26;;;;;;;7.03;6.37;;;;;;;;;;5033990;28;20946;-48
2021/09/19 05:53:51;;;;;;;12.53;6.87;;;;;;;;;;5034181;28;20404;-49
2021/09/19 05:56:17;;;;;;;6.77;6.17;;;;;;;;;;5034088;28;20433;-48
2021/09/19 05:58:43;;;;;;;7.00;6.33;;;;;;;;;;5034067;28;20407;-50
2021/09/19 06:01:09;;;;;;;8.67;7.40;;;;;;;;;;5033695;28;20411;-51
2021/09/19 06:03:37;;;;;;;7.10;6.40;;;;;;;;;;5034067;28;20408;-50
2021/09/19 06:06:04;;;;;;;7.10;5.90;;;;;;;;;;5033943;28;20449;-51
2021/09/19 06:08:29;;;;;;;7.40;6.70;;;;;;;;;;5033934;28;20495;-50
2021/09/19 06:10:55;;;;;;;6.70;6.10;;;;;;;;;;5033234;28;20627;-51
2021/09/19 06:13:21;;;;;;;6.63;5.90;;;;;;;;;;5033982;28;20406;-51
2021/09/19 06:15:47;;;;;;;6.40;5.80;;;;;;;;;;5033517;28;20430;-50
2021/09/19 06:18:13;;;;;;;7.40;6.47;;;;;;;;;;5033865;28;20394;-49
2021/09/19 06:20:40;;;;;;;6.77;6.07;;;;;;;;;;5033419;28;20457;-48
2021/09/19 06:23:06;;;;;;;6.17;5.60;;;;;;;;;;5033910;28;20465;-51
2021/09/19 06:25:32;;;;;;;7.60;6.30;;;;;;;;;;5033624;28;20410;-50
2021/09/19 06:27:58;;;;;;;7.53;5.70;;;;;;;;;;5033658;28;20408;-49
2021/09/19 06:30:26;;;;;;;5.57;5.07;;;;;;;;;;5033122;28;20921;-49
2021/09/19 06:32:52;;;;;;;6.53;5.07;;;;;;;;;;5033553;28;20747;-51
2021/09/19 06:35:18;;;;;;;5.47;4.97;;;;;;;;;;5033425;28;20401;-51
2021/09/19 06:37:44;;;;;;;5.27;4.70;;;;;;;;;;5033344;28;20488;-50
2021/09/19 06:40:10;;;;;;;4.20;3.80;;;;;;;;;;5033162;28;20402;-51
2021/09/19 06:42:36;;;;;;;4.43;3.77;;;;;;;;;;5033353;28;20412;-51
2021/09/19 06:45:02;;;;;;;4.20;3.90;;;;;;;;;;5033233;28;20487;-52
2021/09/19 06:47:28;;;;;;;3.60;3.37;;;;;;;;;;5033287;28;20442;-51
2021/09/19 06:49:54;;;;;;;5.23;4.13;;;;;;;;;;5034380;28;20794;-51
2021/09/19 06:52:20;;;;;;;6.30;3.80;;;;;;;;;;5037699;28;20457;-51
2021/09/19 06:54:46;;;;;;;4.30;4.00;;;;;;;;;;5032995;28;20836;-51
2021/09/19 06:57:12;;;;;;;4.03;3.73;;;;;;;;;;5032961;28;20446;-50
2021/09/19 06:59:39;;;;;;;4.23;3.30;;;;;;;;;;5032713;28;20898;-51
2021/09/19 07:02:05;;;;;;;3.63;3.43;;;;;;;;;;5032858;28;20406;-51
2021/09/19 07:04:32;;;;;;;4.40;3.40;;;;;;;;;;5032861;28;20493;-52
2021/09/19 07:06:58;;;;;;;3.83;3.53;;;;;;;;;;5032779;28;20508;-51
2021/09/19 07:09:24;;;;;;;4.23;3.10;;;;;;;;;;5032003;28;20412;-51
2021/09/19 07:11:49;;;;;;;3.50;3.20;;;;;;;;;;5032326;28;20457;-50
2021/09/19 07:14:15;;;;;;;3.13;2.93;;;;;;;;;;5032615;28;20463;-51
2021/09/19 07:16:42;;;;;;;3.33;3.13;;;;;;;;;;5032429;28;20444;-50
2021/09/19 07:19:08;;;;;;;3.57;3.30;;;;;;;;;;5032947;28;20897;-51
2021/09/19 07:21:34;;;;;;;4.93;4.40;;;;;;;;;;5032563;28;20415;-51
2021/09/19 07:24:00;;;;;;;3.80;3.50;;;;;;;;;;5015797;28;20411;-50
2021/09/19 07:26:27;;;;;;;4.17;3.87;;;;;;;;;;5032671;28;20923;-50
2021/09/19 07:28:53;;;;;;;4.20;3.90;;;;;;;;;;5032580;28;20486;-51
2021/09/19 07:31:19;;;;;;;4.20;3.80;;;;;;;;;;5032239;28;20536;-51
2021/09/19 07:33:45;;;;;;;4.30;4.00;;;;;;;;;;5032316;28;20877;-50
2021/09/19 07:36:11;;;;;;;5.00;4.60;;;;;;;;;;5032643;28;20412;-50
2021/09/19 07:38:37;;;;;;;6.63;4.10;;;;;;;;;;5032285;28;20388;-50
2021/09/19 07:41:04;;;;;;;4.43;4.13;;;;;;;;;;5031914;28;20403;-52
2021/09/19 07:43:30;;;;;;;6.03;4.53;;;;;;;;;;5032209;28;20379;-51
2021/09/19 07:45:56;;;;;;;5.17;4.73;;;;;;;;;;5032129;28;20407;-51
2021/09/19 07:48:23;;;;;;;4.70;4.30;;;;;;;;;;5032136;28;20381;-50
2021/09/19 07:50:49;;;;;;;4.20;3.90;;;;;;;;;;5031804;28;20523;-50
2021/09/19 07:53:15;;;;;;;4.80;4.40;;;;;;;;;;5032044;28;20463;-51
2021/09/19 07:55:41;;;;;;;4.27;3.80;;;;;;;;;;5032303;28;20387;-48
2021/09/19 07:58:07;;;;;;;4.63;4.23;;;;;;;;;;5032180;28;20378;-48
2021/09/19 08:00:33;;;;;;;4.33;4.03;;;;;;;;;;5031742;28;20428;-51
2021/09/19 08:02:59;;;;;;;4.47;4.17;;;;;;;;;;5031794;28;20374;-51
2021/09/19 08:05:25;;;;;;;5.83;4.27;;;;;;;;;;5031750;28;20406;-51
2021/09/19 08:07:52;;;;;;;4.50;4.10;;;;;;;;;;5031834;28;20986;-50
2021/09/19 08:10:18;;;;;;;4.63;4.23;;;;;;;;;;5031504;28;20411;-51
2021/09/19 08:12:47;;;;;;;4.10;3.80;;;;;;;;;;5031612;28;20455;-51
2021/09/19 08:15:13;;;;;;;4.87;4.50;;;;;;;;;;5031744;28;20376;-49
2021/09/19 08:17:39;;;;;;;4.40;4.00;;;;;;;;;;5031644;28;20851;-49
2021/09/19 08:20:06;;;;;;;4.30;3.90;;;;;;;;;;5031649;28;20409;-48
2021/09/19 08:22:32;;;;;;;4.90;4.47;;;;;;;;;;5031749;28;20474;-50
2021/09/19 08:25:00;;;;;;;4.73;4.40;;;;;;;;;;5031559;28;20868;-51
2021/09/19 08:27:27;;;;;;;5.00;4.33;;;;;;;;;;5032007;28;20445;-48
2021/09/19 08:29:53;;;;;;;5.20;4.70;;;;;;;;;;5014149;28;20388;-50
2021/09/19 08:32:19;;;;;;;5.10;4.70;;;;;;;;;;5030258;28;20460;-51
2021/09/19 08:34:45;;;;;;;5.00;4.60;;;;;;;;;;5033944;28;20783;-50
2021/09/19 08:37:11;;;;;;;4.73;4.30;;;;;;;;;;5034794;28;20424;-51
2021/09/19 08:39:37;;;;;;;6.47;4.40;;;;;;;;;;5035285;28;20916;-51
2021/09/19 08:42:04;;;;;;;4.67;4.30;;;;;;;;;;5035438;28;20468;-50
2021/09/19 08:44:30;;;;;;;5.50;5.00;;;;;;;;;;5035559;28;20402;-51
2021/09/19 08:46:57;;;;;;;4.90;4.50;;;;;;;;;;5035380;28;20506;-51
2021/09/19 08:49:23;;;;;;;5.33;4.93;;;;;;;;;;5035350;28;20745;-49
2021/09/19 08:51:49;;;;;;;4.83;4.43;;;;;;;;;;5035071;28;20433;-47
2021/09/19 08:54:17;;;;;;;5.57;5.07;;;;;;;;;;5035192;28;20433;-48
2021/09/19 08:56:45;;;;;;;5.87;5.27;;;;;;;;;;5035212;28;20400;-49
2021/09/19 08:59:11;;;;;;;6.60;5.20;;;;;;;;;;5035219;28;20395;-51
2021/09/19 09:01:56;;;;;;;5.63;5.10;;;;;;;;;;5034893;28;20412;-50
2021/09/19 09:04:22;;;;;;;6.13;5.53;;;;;;;;;;5035116;28;20419;-50
2021/09/19 09:06:50;;;;;;;6.80;6.17;;;;;;;;;;5035012;28;20429;-50
2021/09/19 09:09:17;;;;;;;5.80;4.80;;;;;;;;;;5035091;28;20496;-51
2021/09/19 09:11:44;;;;;;;6.17;5.57;;;;;;;;;;5034793;28;20442;-50
2021/09/19 09:14:19;;;;;;;6.70;6.03;;;;;;;;;;5035020;28;20489;-51
2021/09/19 09:16:48;;;;;;;5.57;5.07;;;;;;;;;;5034810;28;20438;-51
2021/09/19 09:19:14;;;;;;;5.33;4.80;;;;;;;;;;5034870;28;20405;-51
2021/09/19 09:21:41;;;;;;;7.13;5.37;;;;;;;;;;5034588;28;20402;-51
2021/09/19 09:24:08;;;;;;;5.20;4.70;;;;;;;;;;5034844;28;20816;-52
2021/09/19 09:26:37;;;;;;;6.53;5.93;;;;;;;;;;5034786;28;20422;-51
2021/09/19 09:29:06;;;;;;;6.00;5.50;;;;;;;;;;5034760;28;20410;-52
2021/09/19 09:31:37;;;;;;;5.17;4.70;;;;;;;;;;5034270;28;20454;-49
2021/09/19 09:34:02;;;;;;;6.13;5.47;;;;;;;;;;5034488;28;20403;-52
2021/09/19 09:36:38;;;;;;;5.90;5.33;;;;;;;;;;5034648;28;20472;-50
2021/09/19 09:39:22;;;;;;;4.87;4.43;;;;;;;;;;5034679;28;20490;-51
2021/09/19 09:41:48;;;;;;;5.10;4.70;;;;;;;;;;5034222;28;20446;-50
2021/09/19 09:44:28;;;;;;;5.57;5.10;;;;;;;;;;5033809;28;20412;-51
2021/09/19 09:46:54;;;;;;;5.60;5.13;;;;;;;;;;5034359;28;20399;-51
2021/09/19 09:49:35;;;;;;;6.27;5.77;;;;;;;;;;5034304;28;20519;-51
2021/09/19 09:52:10;;;;;;;8.53;5.20;;;;;;;;;;5033985;28;20513;-49
2021/09/19 09:54:40;;;;;;;5.10;4.70;;;;;;;;;;5034178;28;20400;-49
2021/09/19 09:57:06;;;;;;;5.67;5.13;;;;;;;;;;5033949;28;20520;-51
2021/09/19 09:59:32;;;;;;;4.70;4.40;;;;;;;;;;5034013;28;20459;-50
2021/09/19 10:02:01;;;;;;;5.90;5.40;;;;;;;;;;5033800;28;20406;-52
2021/09/19 10:04:28;;;;;;;5.80;5.30;;;;;;;;;;5033979;28;20398;-51
2021/09/19 10:06:54;;;;;;;5.33;4.93;;;;;;;;;;5033893;28;20432;-50
2021/09/19 10:09:20;;;;;;;5.30;4.80;;;;;;;;;;5033876;28;20413;-50
2021/09/19 10:11:47;;;;;;;5.50;5.10;;;;;;;;;;5015795;28;20867;-50
2021/09/19 10:14:13;;;;;;;5.33;4.93;;;;;;;;;;5034057;28;20406;-51
2021/09/19 10:16:39;;;;;;;5.60;5.10;;;;;;;;;;5033566;28;20434;-51
2021/09/19 10:19:05;;;;;;;6.17;5.63;;;;;;;;;;5033740;28;20913;-50
2021/09/19 10:21:34;;;;;;;6.67;5.50;;;;;;;;;;5031574;28;20909;-45
2021/09/19 10:24:00;;;;;;;5.57;5.17;;;;;;;;;;5032852;28;20409;-51
2021/09/19 10:26:26;;;;;;;5.73;5.23;;;;;;;;;;5033372;28;20459;-51
2021/09/19 10:28:54;;;;;;;6.00;5.50;;;;;;;;;;5033400;28;20416;-51
2021/09/19 10:31:42;;;;;;;5.77;5.27;;;;;;;;;;5033024;28;20485;-50
2021/09/19 10:34:10;;;;;;;5.20;4.80;;;;;;;;;;5033152;28;20408;-51
2021/09/19 10:36:36;;;;;;;7.67;5.67;;;;;;;;;;5033285;28;20425;-50
2021/09/19 10:39:14;;;;;;;5.90;5.40;;;;;;;;;;5033227;28;20469;-49
2021/09/19 10:41:58;;;;;;;4.90;4.50;;;;;;;;;;5032787;28;20793;-52
2021/09/19 10:44:53;;;;;;;6.67;5.07;;;;;;;;;;5033144;28;20486;-49
2021/09/19 10:47:25;;;;;;;5.30;4.90;;;;;;;;;;5012361;28;20439;-50
2021/09/19 10:50:10;;;;;;;5.93;5.30;;;;;;;;;;5032994;28;20405;-50
2021/09/19 10:52:43;;;;;;;5.90;5.50;;;;;;;;;;5033197;28;20459;-51
2021/09/19 10:55:20;;;;;;;5.63;5.13;;;;;;;;;;5033206;28;20409;-51
2021/09/19 10:57:55;;;;;;;5.07;4.67;;;;;;;;;;5032183;28;20421;-50
2021/09/19 11:00:21;;;;;;;5.03;4.53;;;;;;;;;;5015023;28;20452;-50
2021/09/19 11:03:02;;;;;;;5.47;4.90;;;;;;;;;;5032391;28;20413;-47
2021/09/19 11:05:28;;;;;;;5.43;4.67;;;;;;;;;;5032125;28;20408;-49
2021/09/19 11:08:09;;;;;;;4.63;4.33;;;;;;;;;;5032563;28;20410;-49
2021/09/19 11:10:58;;;;;;;4.33;4.03;;;;;;;;;;5032873;28;20409;-51
2021/09/19 11:13:45;;;;;;;4.70;4.33;;;;;;;;;;5032832;28;20459;-50
2021/09/19 11:16:25;;;;;;;5.23;4.83;;;;;;;;;;5031919;28;20445;-51
2021/09/19 11:19:02;;;;;;;5.80;3.87;;;;;;;;;;5090101;27;20509;-49
2021/09/19 11:21:28;;;;;;;4.00;3.63;;;;;;;;;;5087282;28;20406;-48
2021/09/19 11:24:01;;;;;;;4.13;3.03;;;;;;;;;;5088485;28;20482;-47
2021/09/19 11:26:37;;;;;;;3.50;3.20;;;;;;;;;;5089332;28;20934;-46
2021/09/19 11:29:08;;;;;;;4.10;3.70;;;;;;;;;;5089397;28;20858;-46
2021/09/19 11:31:34;;;;;;;4.63;3.80;;;;;;;;;;5088826;28;20418;-46
2021/09/19 11:34:02;;;;;;;3.30;3.10;;;;;;;;;;5089666;28;20477;-46
2021/09/19 11:36:28;;;;;;;3.50;3.20;;;;;;;;;;5089758;28;20452;-47
2021/09/19 11:38:54;;;;;;;2.50;2.30;;;;;;;;;;5088931;28;20492;-46
2021/09/19 11:41:21;;;;;;;2.47;2.37;;;;;;;;;;5088710;28;20954;-47
2021/09/19 11:43:50;;;;;;;2.47;2.37;;;;;;;;;;5088946;28;20415;-46
2021/09/19 11:46:18;;;;;;;4.20;2.67;;;;;;;;;;5088817;28;20535;-48
2021/09/19 11:48:45;;;;;;;2.20;2.10;;;;;;;;;;5088641;28;20456;-48
2021/09/19 11:51:16;;;;;;;3.00;2.80;;;;;;;;;;5088551;28;20375;-46
2021/09/19 11:53:46;;;;;;;2.23;2.13;;;;;;;;;;5088769;28;20373;-46
2021/09/19 11:56:14;;;;;;;2.53;2.40;;;;;;;;;;5087752;28;20475;-47
2021/09/19 11:58:41;;;;;;;2.30;2.20;;;;;;;;;;5088373;28;20426;-46
2021/09/19 12:01:07;;;;;;;2.57;2.47;;;;;;;;;;5088239;28;20410;-46
2021/09/19 12:03:33;;;;;;;2.33;2.13;;;;;;;;;;5088409;28;20404;-47
2021/09/19 12:06:00;;;;;;;2.03;1.93;;;;;;;;;;5088254;28;20491;-48
2021/09/19 12:08:27;;;;;;;2.10;2.00;;;;;;;;;;5088317;28;20976;-46
2021/09/19 12:10:54;;;;;;;2.37;2.20;;;;;;;;;;5087976;28;20425;-47
2021/09/19 12:13:23;;;;;;;2.30;2.20;;;;;;;;;;5088268;28;20496;-46
2021/09/19 12:15:58;;;;;;;2.30;2.10;;;;;;;;;;5088274;28;20501;-47
2021/09/19 12:18:25;;;;;;;2.23;2.13;;;;;;;;;;5087923;28;20845;-46
2021/09/19 12:20:55;;;;;;;2.80;2.60;;;;;;;;;;5088129;28;20783;-46
2021/09/19 12:23:22;;;;;;;2.30;2.20;;;;;;;;;;5088184;28;20413;-46
2021/09/19 12:25:49;;;;;;;2.57;2.37;;;;;;;;;;5087999;28;20411;-46
2021/09/19 12:28:43;;;;;;;2.67;2.47;;;;;;;;;;5086369;28;20423;-46
2021/09/19 12:31:08;;;;;;;3.33;2.00;;;;;;;;;;5072442;28;20425;-46
2021/09/19 12:33:48;;;;;;;3.60;2.80;;;;;;;;;;5074374;28;20404;-46
2021/09/19 12:36:15;;;;;;;3.57;2.10;;;;;;;;;;5074463;28;20445;-47
2021/09/19 12:38:44;;;;;;;3.23;2.27;;;;;;;;;;5074352;28;20968;-46
2021/09/19 12:41:12;;;;;;;16.63;4.07;;;;;;;;;;5073787;28;20417;-48
2021/09/19 12:43:41;;;;;;;7.87;2.63;;;;;;;;;;5074351;28;20457;-47
2021/09/19 12:46:10;;;;;;;3.40;3.10;;;;;;;;;;5074112;28;20393;-47
2021/09/19 12:48:37;;;;;;;3.63;3.43;;;;;;;;;;5074170;28;21010;-46
2021/09/19 12:51:03;;;;;;;4.40;4.00;;;;;;;;;;5073776;28;20749;-47
2021/09/19 12:53:31;;;;;;;3.23;3.03;;;;;;;;;;5074088;28;20527;-47
2021/09/19 12:56:00;;;;;;;4.20;3.43;;;;;;;;;;5073875;28;20463;-46
2021/09/19 12:58:26;;;;;;;3.37;3.07;;;;;;;;;;5073978;28;20403;-48
2021/09/19 13:00:52;;;;;;;3.43;3.13;;;;;;;;;;5073798;28;20457;-47
2021/09/19 13:03:22;;;;;;;3.77;3.40;;;;;;;;;;5073863;28;20406;-46
2021/09/19 13:05:49;;;;;;;3.90;3.50;;;;;;;;;;5073945;28;20432;-47
2021/09/19 13:08:15;;;;;;;3.30;3.00;;;;;;;;;;5074169;28;20421;-46
2021/09/19 13:10:41;;;;;;;3.63;3.33;;;;;;;;;;5073684;28;20417;-46
2021/09/19 13:13:07;;;;;;;2.97;2.77;;;;;;;;;;5073751;28;20415;-47
2021/09/19 13:15:34;;;;;;;4.83;3.83;;;;;;;;;;5073561;28;20782;-46
2021/09/19 13:18:00;;;;;;;4.40;4.00;;;;;;;;;;5073619;28;20514;-46
2021/09/19 13:20:27;;;;;;;3.83;3.50;;;;;;;;;;5073477;28;20454;-46
2021/09/19 13:22:53;;;;;;;3.67;3.47;;;;;;;;;;5073484;28;20483;-47
2021/09/19 13:25:19;;;;;;;4.00;3.70;;;;;;;;;;5073581;28;20404;-46
2021/09/19 13:27:45;;;;;;;4.93;3.07;;;;;;;;;;5073310;28;20574;-47
2021/09/19 13:30:12;;;;;;;3.80;3.10;;;;;;;;;;5073290;28;20404;-48
2021/09/19 13:32:38;;;;;;;3.43;3.23;;;;;;;;;;5073427;28;20399;-49
2021/09/19 13:35:04;;;;;;;6.33;3.70;;;;;;;;;;5073307;28;20392;-51
2021/09/19 13:37:31;;;;;;;3.73;3.20;;;;;;;;;;5073095;28;20424;-47
2021/09/19 13:39:58;;;;;;;3.50;3.30;;;;;;;;;;5072911;28;20429;-46
2021/09/19 13:42:24;;;;;;;3.17;2.97;;;;;;;;;;5072539;28;21010;-47
2021/09/19 13:44:50;;;;;;;3.50;3.30;;;;;;;;;;5073230;28;20396;-46
2021/09/19 13:47:17;;;;;;;4.00;3.40;;;;;;;;;;5073023;28;20450;-46
2021/09/19 13:49:43;;;;;;;5.50;3.10;;;;;;;;;;5073725;28;20450;-47
2021/09/19 13:52:09;;;;;;;3.20;2.90;;;;;;;;;;5072606;28;20396;-47
2021/09/19 13:54:35;;;;;;;3.20;3.00;;;;;;;;;;5073010;28;20428;-47
2021/09/19 13:57:01;;;;;;;3.40;3.20;;;;;;;;;;5072879;28;20425;-46
2021/09/19 13:59:27;;;;;;;3.30;3.10;;;;;;;;;;5072893;28;20400;-46
2021/09/19 14:01:54;;;;;;;3.03;2.83;;;;;;;;;;5072680;28;20411;-46
2021/09/19 14:04:20;;;;;;;3.50;3.20;;;;;;;;;;5072185;28;20490;-48
2021/09/19 14:06:47;;;;;;;2.90;2.70;;;;;;;;;;5071682;28;20421;-47
2021/09/19 14:09:13;;;;;;;3.60;3.30;;;;;;;;;;5072398;28;20810;-47
2021/09/19 14:11:39;;;;;;;4.40;4.00;;;;;;;;;;5072350;28;20484;-49
2021/09/19 14:14:05;;;;;;;8.10;6.60;;;;;;;;;;5072686;28;20401;-49
2021/09/19 14:16:32;;;;;;;3.90;3.67;;;;;;;;;;5072577;28;20421;-47
2021/09/19 14:18:58;;;;;;;4.30;3.90;;;;;;;;;;5072579;28;20454;-47
2021/09/19 14:21:24;;;;;;;4.00;3.60;;;;;;;;;;5072179;28;20527;-47
2021/09/19 14:23:50;;;;;;;3.77;3.47;;;;;;;;;;5072449;28;20439;-47
2021/09/19 14:26:17;;;;;;;3.37;3.17;;;;;;;;;;5072568;28;20416;-47
2021/09/19 14:28:46;;;;;;;6.20;5.60;;;;;;;;;;5072216;28;20873;-46
2021/09/19 14:31:12;;;;;;;3.30;3.10;;;;;;;;;;5072153;28;20411;-47
2021/09/19 14:33:38;;;;;;;3.97;3.67;;;;;;;;;;5072258;28;20436;-47
2021/09/19 14:36:05;;;;;;;5.20;4.40;;;;;;;;;;5072269;28;20448;-46
2021/09/19 14:38:31;;;;;;;4.27;3.87;;;;;;;;;;5072317;28;20408;-47
2021/09/19 14:40:57;;;;;;;4.43;4.03;;;;;;;;;;5072121;28;20400;-47
2021/09/19 14:43:23;;;;;;;4.00;3.63;;;;;;;;;;5072496;28;20867;-47